createdAt,value
2022-08-27T00:01:43.965Z,99.90
2022-08-27T00:04:11.770Z,99.90
2022-08-27T00:06:39.378Z,99.90
2022-08-27T00:09:07.389Z,99.90
2022-08-27T00:11:35.493Z,99.90
2022-08-27T00:14:04.257Z,99.90
2022-08-27T00:16:32.995Z,99.90
2022-08-27T00:19:00.557Z,99.90
2022-08-27T00:21:28.681Z,99.90
2022-08-27T00:23:56.203Z,99.90
2022-08-27T00:26:23.665Z,99.90
2022-08-27T00:28:51.397Z,99.90
2022-08-27T00:31:19.134Z,99.90
2022-08-27T00:33:55.650Z,99.90
2022-08-27T00:36:24.206Z,99.90
2022-08-27T00:38:54.010Z,99.90
2022-08-27T00:41:22.112Z,99.90
2022-08-27T00:43:57.283Z,99.90
2022-08-27T00:46:31.665Z,99.90
2022-08-27T00:49:09.801Z,99.90
2022-08-27T00:51:38.321Z,99.90
2022-08-27T00:54:08.219Z,99.90
2022-08-27T00:56:44.321Z,99.90
2022-08-27T00:59:18.144Z,99.90
2022-08-27T01:02:05.404Z,99.90
2022-08-27T01:04:35.835Z,99.90
2022-08-27T01:07:04.425Z,99.90
2022-08-27T01:09:32.397Z,99.90
2022-08-27T01:11:59.832Z,99.90
2022-08-27T01:14:27.436Z,99.90
2022-08-27T01:16:58.099Z,99.90
2022-08-27T01:19:34.090Z,99.90
2022-08-27T01:22:27.403Z,99.90
2022-08-27T01:24:58.253Z,99.90
2022-08-27T01:27:28.639Z,99.90
2022-08-27T01:29:56.412Z,99.90
2022-08-27T01:32:27.702Z,99.90
2022-08-27T01:34:56.495Z,99.90
2022-08-27T01:37:25.546Z,99.90
2022-08-27T01:39:57.010Z,99.90
2022-08-27T01:42:41.812Z,99.90
2022-08-27T01:45:09.471Z,99.90
2022-08-27T01:47:37.414Z,99.90
2022-08-27T01:50:09.175Z,99.90
2022-08-27T01:52:36.898Z,99.90
2022-08-27T01:55:08.572Z,99.90
2022-08-27T01:57:36.056Z,99.90
2022-08-27T02:00:13.793Z,99.90
2022-08-27T02:02:41.734Z,99.90
2022-08-27T02:05:10.892Z,99.90
2022-08-27T02:07:39.881Z,99.90
2022-08-27T02:10:09.994Z,99.90
2022-08-27T02:12:37.676Z,99.90
2022-08-27T02:15:06.468Z,99.90
2022-08-27T02:17:34.276Z,99.90
2022-08-27T02:20:02.035Z,99.90
2022-08-27T02:22:29.907Z,99.90
2022-08-27T02:24:57.409Z,99.90
2022-08-27T02:27:24.885Z,99.90
2022-08-27T02:29:52.913Z,99.90
2022-08-27T02:32:31.867Z,99.90
2022-08-27T02:35:00.764Z,99.90
2022-08-27T02:37:28.546Z,99.90
2022-08-27T02:39:56.076Z,99.90
2022-08-27T02:42:24.412Z,99.90
2022-08-27T02:44:51.826Z,99.90
2022-08-27T02:47:19.153Z,99.90
2022-08-27T02:49:46.561Z,99.90
2022-08-27T02:52:14.094Z,99.90
2022-08-27T02:54:41.706Z,99.90
2022-08-27T02:57:09.339Z,99.90
2022-08-27T02:59:37.029Z,99.90
2022-08-27T03:02:04.649Z,99.90
2022-08-27T03:04:32.275Z,99.90
2022-08-27T03:07:00.392Z,99.90
2022-08-27T03:09:27.987Z,99.90
2022-08-27T03:11:55.410Z,99.90
2022-08-27T03:14:22.815Z,99.90
2022-08-27T03:16:50.243Z,99.90
2022-08-27T03:19:23.822Z,99.90
2022-08-27T03:21:54.652Z,99.90
2022-08-27T03:24:22.383Z,99.90
2022-08-27T03:26:52.550Z,99.90
2022-08-27T03:29:21.615Z,99.90
2022-08-27T03:31:49.243Z,99.90
2022-08-27T03:34:19.763Z,99.90
2022-08-27T03:36:48.935Z,99.90
2022-08-27T03:39:16.265Z,99.90
2022-08-27T03:41:55.407Z,99.90
2022-08-27T03:44:24.283Z,99.90
2022-08-27T03:46:52.529Z,99.90
2022-08-27T03:49:21.521Z,99.90
2022-08-27T03:51:50.762Z,99.90
2022-08-27T03:54:18.515Z,99.90
2022-08-27T03:56:46.950Z,99.90
2022-08-27T03:59:15.699Z,99.90
2022-08-27T04:01:44.944Z,99.90
2022-08-27T04:04:13.126Z,99.90
2022-08-27T04:06:41.035Z,99.90
2022-08-27T04:09:08.398Z,99.90
2022-08-27T04:11:36.589Z,99.90
2022-08-27T04:14:19.761Z,99.90
2022-08-27T04:16:54.525Z,99.90
2022-08-27T04:19:26.966Z,99.90
2022-08-27T04:22:00.289Z,99.90
2022-08-27T04:24:28.658Z,99.90
2022-08-27T04:26:56.017Z,99.90
2022-08-27T04:29:24.474Z,99.90
2022-08-27T04:31:51.844Z,99.90
2022-08-27T04:34:19.452Z,99.90
2022-08-27T04:36:46.909Z,99.90
2022-08-27T04:39:14.998Z,99.90
2022-08-27T04:41:42.810Z,99.90
2022-08-27T04:44:11.218Z,99.90
2022-08-27T04:46:40.851Z,99.90
2022-08-27T04:49:13.632Z,99.90
2022-08-27T04:51:43.444Z,99.90
2022-08-27T04:54:11.188Z,99.90
2022-08-27T04:57:05.090Z,99.90
2022-08-27T04:59:33.180Z,99.90
2022-08-27T05:02:03.577Z,99.90
2022-08-27T05:04:34.249Z,99.90
2022-08-27T05:07:02.126Z,99.90
2022-08-27T05:09:30.197Z,99.90
2022-08-27T05:11:57.575Z,99.90
2022-08-27T05:14:29.976Z,99.90
2022-08-27T05:16:59.128Z,99.90
2022-08-27T05:19:27.213Z,99.90
2022-08-27T05:21:55.016Z,99.90
2022-08-27T05:24:23.030Z,99.90
2022-08-27T05:26:51.481Z,99.90
2022-08-27T05:29:19.053Z,99.90
2022-08-27T05:31:47.848Z,99.90
2022-08-27T05:34:18.557Z,99.90
2022-08-27T05:36:47.952Z,99.90
2022-08-27T05:39:17.460Z,99.90
2022-08-27T05:41:45.257Z,99.90
2022-08-27T05:44:46.292Z,99.90
2022-08-27T05:46:59.946Z,99.90
2022-08-27T05:49:27.276Z,99.90
2022-08-27T05:51:54.596Z,99.90
2022-08-27T05:54:22.055Z,99.90
2022-08-27T05:56:49.978Z,99.90
2022-08-27T05:59:37.200Z,99.90
2022-08-27T06:02:06.869Z,99.90
2022-08-27T06:04:34.651Z,99.90
2022-08-27T06:07:02.122Z,99.90
2022-08-27T06:09:30.077Z,99.90
2022-08-27T06:12:00.014Z,99.90
2022-08-27T06:14:28.024Z,99.90
2022-08-27T06:16:55.985Z,99.90
2022-08-27T06:19:23.953Z,99.90
2022-08-27T06:22:00.177Z,99.90
2022-08-27T06:24:39.475Z,99.90
2022-08-27T06:27:06.908Z,99.90
2022-08-27T06:29:35.092Z,99.90
2022-08-27T06:32:02.874Z,99.90
2022-08-27T06:34:30.986Z,99.90
2022-08-27T06:36:59.015Z,99.90
2022-08-27T06:39:27.071Z,99.90
2022-08-27T06:41:55.034Z,99.90
2022-08-27T06:44:24.303Z,99.90
2022-08-27T06:46:52.053Z,99.90
2022-08-27T06:49:19.429Z,99.90
2022-08-27T06:51:48.354Z,99.90
2022-08-27T06:54:17.198Z,99.90
2022-08-27T06:56:44.665Z,99.90
2022-08-27T06:59:15.540Z,99.90
2022-08-27T07:01:47.292Z,99.90
2022-08-27T07:04:20.930Z,99.90
2022-08-27T07:06:48.730Z,99.90
2022-08-27T07:09:16.506Z,99.90
2022-08-27T07:11:43.872Z,99.90
2022-08-27T07:14:11.564Z,99.90
2022-08-27T07:16:40.843Z,99.90
2022-08-27T07:19:08.619Z,99.90
2022-08-27T07:21:38.996Z,99.90
2022-08-27T07:24:07.818Z,99.90
2022-08-27T07:26:39.080Z,99.90
2022-08-27T07:29:08.722Z,99.90
2022-08-27T07:31:36.678Z,99.90
2022-08-27T07:34:05.274Z,99.90
2022-08-27T07:36:34.179Z,99.90
2022-08-27T07:39:02.076Z,99.90
2022-08-27T07:41:32.068Z,99.90
2022-08-27T07:44:19.347Z,99.90
2022-08-27T07:46:48.803Z,99.90
2022-08-27T07:49:17.911Z,99.90
2022-08-27T07:51:47.913Z,99.90
2022-08-27T07:54:16.342Z,99.90
2022-08-27T07:56:55.421Z,99.90
2022-08-27T07:59:25.082Z,99.90
2022-08-27T08:01:55.176Z,99.90
2022-08-27T08:04:23.393Z,99.90
2022-08-27T08:06:52.146Z,99.90
2022-08-27T08:09:22.030Z,99.90
2022-08-27T08:11:51.299Z,99.90
2022-08-27T08:14:19.019Z,99.90
2022-08-27T08:16:46.468Z,99.90
2022-08-27T08:19:14.025Z,99.90
2022-08-27T08:21:43.451Z,99.90
2022-08-27T08:24:10.824Z,99.90
2022-08-27T08:26:38.246Z,99.90
2022-08-27T08:29:13.771Z,99.90
2022-08-27T08:31:49.949Z,99.90
2022-08-27T08:34:19.713Z,99.90
2022-08-27T08:36:53.806Z,99.90
2022-08-27T08:39:22.924Z,99.90
2022-08-27T08:41:56.640Z,99.90
2022-08-27T08:44:48.574Z,99.90
2022-08-27T08:47:23.535Z,99.90
2022-08-27T08:50:21.410Z,99.90
2022-08-27T08:52:52.286Z,99.90
2022-08-27T08:55:37.120Z,99.90
2022-08-27T08:58:17.152Z,99.90
2022-08-27T09:00:48.866Z,99.90
2022-08-27T09:03:16.993Z,99.90
2022-08-27T09:05:51.337Z,99.90
2022-08-27T09:08:36.509Z,99.90
2022-08-27T09:11:10.672Z,99.90
2022-08-27T09:13:48.096Z,99.90
2022-08-27T09:16:16.057Z,99.90
2022-08-27T09:18:46.245Z,99.90
2022-08-27T09:21:44.978Z,99.90
2022-08-27T09:24:22.950Z,99.90
2022-08-27T09:26:50.568Z,99.90
2022-08-27T09:29:20.461Z,99.90
2022-08-27T09:31:55.862Z,99.90
2022-08-27T09:34:24.836Z,99.90
2022-08-27T09:37:10.217Z,99.90
2022-08-27T09:39:40.856Z,99.90
2022-08-27T09:42:59.226Z,99.90
2022-08-27T09:45:29.868Z,99.90
2022-08-27T09:48:09.909Z,99.90
2022-08-27T09:50:49.437Z,99.90
2022-08-27T09:53:26.852Z,99.90
2022-08-27T09:55:59.314Z,99.90
2022-08-27T09:58:52.699Z,99.90
2022-08-27T10:01:23.317Z,99.90
2022-08-27T10:04:02.707Z,99.90
2022-08-27T10:06:31.795Z,99.90
2022-08-27T10:09:16.067Z,99.90
2022-08-27T10:11:52.716Z,99.90
2022-08-27T10:14:52.419Z,99.90
2022-08-27T10:17:45.184Z,99.90
2022-08-27T10:20:30.465Z,99.90
2022-08-27T10:23:13.622Z,99.90
2022-08-27T10:25:54.973Z,99.90
2022-08-27T10:28:46.687Z,99.90
2022-08-27T10:31:54.508Z,99.90
2022-08-27T10:34:49.591Z,99.90
2022-08-27T10:37:24.758Z,99.90
2022-08-27T10:40:08.296Z,99.90
2022-08-27T10:42:44.589Z,99.90
2022-08-27T10:45:51.937Z,99.90
2022-08-27T10:48:38.849Z,99.90
2022-08-27T10:51:18.021Z,99.90
2022-08-27T10:53:55.866Z,99.90
2022-08-27T10:56:33.967Z,99.90
2022-08-27T10:59:06.237Z,99.90
2022-08-27T11:02:13.681Z,99.90
2022-08-27T11:04:49.755Z,99.90
2022-08-27T11:07:24.297Z,99.90
2022-08-27T11:10:17.481Z,99.90
2022-08-27T11:12:51.826Z,99.90
2022-08-27T11:15:26.268Z,99.90
2022-08-27T11:18:05.985Z,99.90
2022-08-27T11:20:48.098Z,99.90
2022-08-27T11:23:19.722Z,99.90
2022-08-27T11:26:01.073Z,99.90
2022-08-27T11:28:39.508Z,99.90
2022-08-27T11:31:22.717Z,99.90
2022-08-27T11:34:04.593Z,99.90
2022-08-27T11:37:06.954Z,99.90
2022-08-27T11:40:14.213Z,99.90
2022-08-27T11:42:44.390Z,99.90
2022-08-27T11:45:38.294Z,99.00
2022-08-27T11:48:22.786Z,98.70
2022-08-27T11:50:56.724Z,97.40
2022-08-27T11:53:30.775Z,96.90
2022-08-27T11:56:09.972Z,96.00
2022-08-27T11:58:52.735Z,95.50
2022-08-27T12:01:31.885Z,94.70
2022-08-27T12:04:03.124Z,92.80
2022-08-27T12:06:42.530Z,91.80
2022-08-27T12:09:18.186Z,90.20
2022-08-27T12:12:10.382Z,87.80
2022-08-27T12:14:51.609Z,84.00
2022-08-27T12:17:38.202Z,75.50
2022-08-27T12:20:35.265Z,70.80
2022-08-27T12:23:40.312Z,62.00
2022-08-27T12:26:26.571Z,59.00
2022-08-27T12:29:24.143Z,58.70
2022-08-27T12:32:18.895Z,52.80
2022-08-27T12:35:08.152Z,52.30
2022-08-27T12:38:06.637Z,52.00
2022-08-27T12:40:46.498Z,49.90
2022-08-27T12:43:21.729Z,50.60
2022-08-27T12:46:02.191Z,50.10
2022-08-27T12:48:32.868Z,50.10
2022-08-27T12:51:06.938Z,48.50
2022-08-27T12:53:47.746Z,48.10
2022-08-27T12:56:39.701Z,48.10
2022-08-27T12:59:36.896Z,48.50
2022-08-27T13:02:27.693Z,46.30
2022-08-27T13:04:55.280Z,47.40
2022-08-27T13:07:32.975Z,46.60
2022-08-27T13:10:22.132Z,47.00
2022-08-27T13:13:05.433Z,44.70
2022-08-27T13:15:35.184Z,45.70
2022-08-27T13:18:07.701Z,46.20
2022-08-27T13:20:38.473Z,48.00
2022-08-27T13:23:16.115Z,46.00
2022-08-27T13:25:56.880Z,47.40
2022-08-27T13:28:27.930Z,47.00
2022-08-27T13:30:56.066Z,49.40
2022-08-27T13:33:27.844Z,49.40
2022-08-27T13:35:57.584Z,47.60
2022-08-27T13:38:28.205Z,48.60
2022-08-27T13:41:09.232Z,50.40
2022-08-27T13:43:45.487Z,50.40
2022-08-27T13:46:16.877Z,51.10
2022-08-27T13:48:47.592Z,53.30
2022-08-27T13:51:15.866Z,55.10
2022-08-27T13:54:07.138Z,57.30
2022-08-27T13:56:41.039Z,56.30
2022-08-27T13:59:24.142Z,57.00
2022-08-27T14:02:20.379Z,57.30
2022-08-27T14:05:06.009Z,59.60
2022-08-27T14:07:38.931Z,58.50
2022-08-27T14:10:26.148Z,58.60
2022-08-27T14:13:09.672Z,58.00
2022-08-27T14:15:43.974Z,58.00
2022-08-27T14:18:57.759Z,56.80
2022-08-27T14:21:23.146Z,56.10
2022-08-27T14:23:51.790Z,55.70
2022-08-27T14:26:20.347Z,55.70
2022-08-27T14:28:48.067Z,56.70
2022-08-27T14:31:15.845Z,57.30
2022-08-27T14:33:43.284Z,56.80
2022-08-27T14:36:11.125Z,56.60
2022-08-27T14:38:41.795Z,56.50
2022-08-27T14:41:09.313Z,55.90
2022-08-27T14:43:37.804Z,56.50
2022-08-27T14:46:08.001Z,57.10
2022-08-27T14:48:36.923Z,57.70
2022-08-27T14:51:12.392Z,58.00
2022-08-27T14:53:39.886Z,58.20
2022-08-27T14:56:07.310Z,59.70
2022-08-27T14:58:34.730Z,61.20
2022-08-27T15:01:04.392Z,61.10
2022-08-27T15:03:37.264Z,62.30
2022-08-27T15:06:06.410Z,63.30
2022-08-27T15:08:34.369Z,63.60
2022-08-27T15:11:03.620Z,64.50
2022-08-27T15:13:31.243Z,65.10
2022-08-27T15:15:58.989Z,65.20
2022-08-27T15:18:26.427Z,66.00
2022-08-27T15:20:54.040Z,66.00
2022-08-27T15:23:21.437Z,66.50
2022-08-27T15:25:49.667Z,66.50
2022-08-27T15:28:17.062Z,66.20
2022-08-27T15:30:44.522Z,67.50
2022-08-27T15:33:11.864Z,67.30
2022-08-27T15:35:39.312Z,67.20
2022-08-27T15:38:06.630Z,68.00
2022-08-27T15:40:35.890Z,67.80
2022-08-27T15:43:06.224Z,68.30
2022-08-27T15:45:33.777Z,67.90
2022-08-27T15:48:01.567Z,67.60
2022-08-27T15:50:31.057Z,66.90
2022-08-27T15:53:02.938Z,66.70
2022-08-27T15:55:34.064Z,67.70
2022-08-27T15:58:02.537Z,69.50
2022-08-27T16:00:33.693Z,68.90
2022-08-27T16:03:04.769Z,68.60
2022-08-27T16:05:35.541Z,69.40
2022-08-27T16:08:03.840Z,70.10
2022-08-27T16:10:32.068Z,70.80
2022-08-27T16:12:59.466Z,71.30
2022-08-27T16:15:27.994Z,71.30
2022-08-27T16:17:59.326Z,71.90
2022-08-27T16:20:27.496Z,71.90
2022-08-27T16:22:55.159Z,72.80
2022-08-27T16:25:23.524Z,73.70
2022-08-27T16:27:51.903Z,73.50
2022-08-27T16:30:21.443Z,73.40
2022-08-27T16:32:52.149Z,74.80
2022-08-27T16:35:20.647Z,74.70
2022-08-27T16:37:48.401Z,74.70
2022-08-27T16:40:16.476Z,75.30
2022-08-27T16:42:46.971Z,75.90
2022-08-27T16:45:16.291Z,76.00
2022-08-27T16:48:02.977Z,76.30
2022-08-27T16:50:33.558Z,76.00
2022-08-27T16:53:08.979Z,77.60
2022-08-27T16:55:37.778Z,77.20
2022-08-27T16:58:10.856Z,78.30
2022-08-27T17:00:39.130Z,78.30
2022-08-27T17:03:07.386Z,78.80
2022-08-27T17:05:35.431Z,79.20
2022-08-27T17:08:03.686Z,79.10
2022-08-27T17:10:41.594Z,78.90
2022-08-27T17:13:09.253Z,79.30
2022-08-27T17:15:37.102Z,79.10
2022-08-27T17:18:05.443Z,79.60
2022-08-27T17:20:34.824Z,81.00
2022-08-27T17:23:03.940Z,81.40
2022-08-27T17:25:31.336Z,81.60
2022-08-27T17:28:00.476Z,82.10
2022-08-27T17:30:28.332Z,83.00
2022-08-27T17:32:56.363Z,84.00
2022-08-27T17:35:23.690Z,85.10
2022-08-27T17:37:51.034Z,86.20
2022-08-27T17:40:18.496Z,86.50
2022-08-27T17:42:46.014Z,87.30
2022-08-27T17:45:13.447Z,88.20
2022-08-27T17:47:41.371Z,89.70
2022-08-27T17:50:09.334Z,90.40
2022-08-27T17:52:39.046Z,91.20
2022-08-27T17:55:06.963Z,92.00
2022-08-27T17:57:40.302Z,92.90
2022-08-27T18:00:10.926Z,94.00
2022-08-27T18:02:45.141Z,95.20
2022-08-27T18:05:14.543Z,96.60
2022-08-27T18:07:43.216Z,97.80
2022-08-27T18:10:13.027Z,99.10
2022-08-27T18:12:41.953Z,99.90
2022-08-27T18:15:18.257Z,99.90
2022-08-27T18:17:45.789Z,99.90
2022-08-27T18:20:14.630Z,99.90
2022-08-27T18:22:48.663Z,99.90
2022-08-27T18:25:21.774Z,99.90
2022-08-27T18:27:51.679Z,99.90
2022-08-27T18:30:19.680Z,99.90
2022-08-27T18:32:47.173Z,99.90
2022-08-27T18:35:20.602Z,99.90
2022-08-27T18:37:48.577Z,99.90
2022-08-27T18:40:19.823Z,99.90
2022-08-27T18:42:48.069Z,99.90
2022-08-27T18:45:20.838Z,99.90
2022-08-27T18:47:50.769Z,99.90
2022-08-27T18:50:19.363Z,99.90
2022-08-27T18:52:48.550Z,99.90
2022-08-27T18:55:19.116Z,99.90
2022-08-27T18:57:46.731Z,99.90
2022-08-27T19:00:15.984Z,99.90
2022-08-27T19:02:43.631Z,99.90
2022-08-27T19:05:13.081Z,99.90
2022-08-27T19:07:40.485Z,99.90
2022-08-27T19:10:08.424Z,99.90
2022-08-27T19:12:38.349Z,99.90
2022-08-27T19:15:07.491Z,99.90
2022-08-27T19:17:36.038Z,99.90
2022-08-27T19:20:06.114Z,99.90
2022-08-27T19:22:34.139Z,99.90
2022-08-27T19:25:02.403Z,99.90
2022-08-27T19:27:30.798Z,99.90
2022-08-27T19:29:58.299Z,99.90
2022-08-27T19:32:25.718Z,99.90
2022-08-27T19:34:54.632Z,99.90
2022-08-27T19:37:25.201Z,99.90
2022-08-27T19:39:52.763Z,99.90
2022-08-27T19:42:20.110Z,99.90
2022-08-27T19:44:48.157Z,99.90
2022-08-27T19:47:21.381Z,99.90
2022-08-27T19:49:49.716Z,99.90
2022-08-27T19:52:17.609Z,99.90
2022-08-27T19:55:03.307Z,99.90
2022-08-27T19:57:32.390Z,99.90
2022-08-27T20:00:00.426Z,99.90
2022-08-27T20:02:28.321Z,99.90
2022-08-27T20:05:16.552Z,99.90
2022-08-27T20:07:43.399Z,99.90
2022-08-27T20:10:10.869Z,99.90
2022-08-27T20:12:38.370Z,99.90
2022-08-27T20:15:07.350Z,99.90
2022-08-27T20:17:35.655Z,99.90
2022-08-27T20:20:04.458Z,99.90
2022-08-27T20:22:31.856Z,99.90
2022-08-27T20:24:59.254Z,99.90
2022-08-27T20:27:26.722Z,99.90
2022-08-27T20:29:54.824Z,99.90
2022-08-27T20:32:24.808Z,99.90
2022-08-27T20:34:55.331Z,99.90
2022-08-27T20:37:23.104Z,99.90
2022-08-27T20:39:52.348Z,99.90
2022-08-27T20:42:20.752Z,99.90
2022-08-27T20:44:48.725Z,99.90
2022-08-27T20:47:17.454Z,99.90
2022-08-27T20:49:44.879Z,99.90
2022-08-27T20:52:13.207Z,99.90
2022-08-27T20:54:41.035Z,99.90
2022-08-27T20:57:09.421Z,99.90
2022-08-27T20:59:56.267Z,99.90
2022-08-27T21:02:28.621Z,99.90
2022-08-27T21:04:57.626Z,99.90
2022-08-27T21:07:25.277Z,99.90
2022-08-27T21:09:57.117Z,99.90
2022-08-27T21:12:29.672Z,99.90
2022-08-27T21:14:58.312Z,99.90
2022-08-27T21:17:28.256Z,99.90
2022-08-27T21:19:56.181Z,99.90
2022-08-27T21:22:24.633Z,99.90
2022-08-27T21:24:52.480Z,99.90
2022-08-27T21:27:21.817Z,99.90
2022-08-27T21:29:49.794Z,99.90
2022-08-27T21:32:17.369Z,99.90
2022-08-27T21:34:45.036Z,99.90
2022-08-27T21:37:14.285Z,99.90
2022-08-27T21:39:43.330Z,99.90
2022-08-27T21:42:12.473Z,99.90
2022-08-27T21:44:39.960Z,99.90
2022-08-27T21:47:08.686Z,99.90
2022-08-27T21:49:36.113Z,99.90
2022-08-27T21:52:05.903Z,99.90
2022-08-27T21:54:36.519Z,99.90
2022-08-27T21:57:04.811Z,99.90
2022-08-27T21:59:38.204Z,99.90
2022-08-27T22:02:22.972Z,99.90
2022-08-27T22:04:54.030Z,99.90
2022-08-27T22:07:22.225Z,99.90
2022-08-27T22:09:49.973Z,99.90
2022-08-27T22:12:17.325Z,99.90
2022-08-27T22:14:44.653Z,99.90
2022-08-27T22:17:15.647Z,99.90
2022-08-27T22:19:43.103Z,99.90
2022-08-27T22:22:10.576Z,99.90
2022-08-27T22:24:37.982Z,99.90
2022-08-27T22:27:05.470Z,99.90
2022-08-27T22:29:32.810Z,99.90
2022-08-27T22:32:00.139Z,99.90
2022-08-27T22:34:27.493Z,99.90
2022-08-27T22:36:54.851Z,99.90
2022-08-27T22:39:23.081Z,99.90
2022-08-27T22:41:53.784Z,99.90
2022-08-27T22:44:21.245Z,99.90
2022-08-27T22:46:48.963Z,99.90
2022-08-27T22:49:16.317Z,99.90
2022-08-27T22:51:43.795Z,99.90
2022-08-27T22:54:11.173Z,99.90
2022-08-27T22:56:38.527Z,99.90
2022-08-27T22:59:07.209Z,99.90
2022-08-27T23:01:36.310Z,99.90
2022-08-27T23:04:06.338Z,99.90
2022-08-27T23:06:34.758Z,99.90
2022-08-27T23:09:02.184Z,99.90
2022-08-27T23:11:31.962Z,99.90
2022-08-27T23:13:59.732Z,99.90
2022-08-27T23:16:28.196Z,99.90
2022-08-27T23:18:55.918Z,99.90
2022-08-27T23:21:23.759Z,99.90
2022-08-27T23:23:51.389Z,99.90
2022-08-27T23:26:37.911Z,99.90
2022-08-27T23:29:05.409Z,99.90
2022-08-27T23:31:33.158Z,99.90
2022-08-27T23:34:00.559Z,99.90
2022-08-27T23:36:29.276Z,99.90
2022-08-27T23:38:58.331Z,99.90
2022-08-27T23:41:27.148Z,99.90
2022-08-27T23:43:55.733Z,99.90
2022-08-27T23:46:23.293Z,99.90
2022-08-27T23:48:50.929Z,99.90
2022-08-27T23:51:18.368Z,99.90
2022-08-27T23:53:46.371Z,99.90
2022-08-27T23:56:14.907Z,99.90
2022-08-27T23:58:42.864Z,99.90
